createdAt,value
2023-03-22T00:01:16.616Z,7.47
2023-03-22T00:03:43.450Z,7.59
2023-03-22T00:06:10.292Z,7.55
2023-03-22T00:08:37.053Z,7.38
2023-03-22T00:11:03.862Z,7.44
2023-03-22T00:13:30.405Z,7.57
2023-03-22T00:15:59.602Z,7.57
2023-03-22T00:18:26.263Z,7.57
2023-03-22T00:20:55.450Z,7.52
2023-03-22T00:23:22.912Z,7.69
2023-03-22T00:25:50.034Z,7.74
2023-03-22T00:28:17.384Z,7.82
2023-03-22T00:30:51.712Z,7.67
2023-03-22T00:33:18.106Z,7.68
2023-03-22T00:36:14.356Z,7.58
2023-03-22T00:38:43.481Z,7.24
2023-03-22T00:41:14.364Z,7.64
2023-03-22T00:43:41.611Z,7.75
2023-03-22T00:46:08.948Z,7.69
2023-03-22T00:48:35.994Z,7.78
2023-03-22T00:51:02.505Z,7.62
2023-03-22T00:53:29.147Z,7.55
2023-03-22T00:56:06.077Z,7.55
2023-03-22T00:58:32.657Z,7.50
2023-03-22T01:00:59.252Z,7.74
2023-03-22T01:03:25.778Z,7.47
2023-03-22T01:05:56.372Z,7.58
2023-03-22T01:08:23.882Z,7.44
2023-03-22T01:10:53.248Z,7.19
2023-03-22T01:13:19.680Z,7.22
2023-03-22T01:15:47.863Z,7.18
2023-03-22T01:18:14.397Z,7.10
2023-03-22T01:20:41.107Z,7.23
2023-03-22T01:23:07.769Z,6.92
2023-03-22T01:25:34.172Z,6.92
2023-03-22T01:28:02.645Z,6.66
2023-03-22T01:30:31.062Z,6.72
2023-03-22T01:32:57.505Z,6.82
2023-03-22T01:35:24.022Z,6.94
2023-03-22T01:37:50.568Z,6.68
2023-03-22T01:40:17.147Z,6.72
2023-03-22T01:42:43.608Z,6.59
2023-03-22T01:45:12.952Z,6.68
2023-03-22T01:47:43.261Z,6.56
2023-03-22T01:50:09.976Z,6.50
2023-03-22T01:52:37.589Z,6.46
2023-03-22T01:55:06.298Z,6.34
2023-03-22T01:57:37.496Z,6.26
2023-03-22T02:00:15.811Z,6.30
2023-03-22T02:02:43.888Z,6.21
2023-03-22T02:05:12.302Z,6.18
2023-03-22T02:07:40.780Z,6.27
2023-03-22T02:10:17.452Z,6.25
2023-03-22T02:13:16.206Z,6.32
2023-03-22T02:15:53.668Z,6.21
2023-03-22T02:19:04.106Z,6.39
2023-03-22T02:22:09.804Z,6.35
2023-03-22T02:25:07.272Z,6.41
2023-03-22T02:27:54.982Z,6.25
2023-03-22T02:30:21.339Z,6.35
2023-03-22T02:33:06.902Z,6.37
2023-03-22T02:35:42.533Z,6.22
2023-03-22T02:38:54.093Z,6.21
2023-03-22T02:41:38.654Z,6.17
2023-03-22T02:44:33.009Z,6.00
2023-03-22T02:47:16.694Z,5.91
2023-03-22T02:50:08.985Z,5.64
2023-03-22T02:53:12.079Z,5.64
2023-03-22T02:55:53.554Z,5.56
2023-03-22T02:58:29.917Z,5.46
2023-03-22T03:01:00.776Z,5.38
2023-03-22T03:03:30.472Z,5.13
2023-03-22T03:06:02.499Z,5.13
2023-03-22T03:08:30.626Z,5.02
2023-03-22T03:10:57.037Z,4.83
2023-03-22T03:13:23.604Z,4.83
2023-03-22T03:15:59.149Z,4.77
2023-03-22T03:18:48.354Z,4.65
2023-03-22T03:22:08.600Z,4.79
2023-03-22T03:25:00.984Z,4.39
2023-03-22T03:27:38.259Z,4.14
2023-03-22T03:30:13.916Z,4.34
2023-03-22T03:32:59.245Z,4.22
2023-03-22T03:35:37.615Z,3.99
2023-03-22T03:38:09.876Z,4.14
2023-03-22T03:40:43.876Z,3.93
2023-03-22T03:43:11.399Z,3.91
2023-03-22T03:45:38.410Z,3.84
2023-03-22T03:48:09.120Z,3.86
2023-03-22T03:50:42.237Z,3.71
2023-03-22T03:53:08.861Z,3.74
2023-03-22T03:55:36.201Z,3.54
2023-03-22T03:58:02.594Z,3.80
2023-03-22T04:00:29.114Z,3.57
2023-03-22T04:02:55.534Z,3.66
2023-03-22T04:05:27.113Z,3.54
2023-03-22T04:07:53.702Z,3.28
2023-03-22T04:10:20.158Z,3.28
2023-03-22T04:12:46.532Z,3.47
2023-03-22T04:15:13.160Z,3.59
2023-03-22T04:17:40.302Z,3.59
2023-03-22T04:20:09.682Z,3.56
2023-03-22T04:22:55.683Z,3.35
2023-03-22T04:25:22.798Z,3.28
2023-03-22T04:27:51.427Z,3.27
2023-03-22T04:30:21.985Z,3.57
2023-03-22T04:32:49.796Z,3.37
2023-03-22T04:35:17.176Z,3.27
2023-03-22T04:37:43.768Z,3.11
2023-03-22T04:40:16.529Z,3.28
2023-03-22T04:42:44.107Z,3.26
2023-03-22T04:45:12.018Z,3.34
2023-03-22T04:47:38.716Z,3.17
2023-03-22T04:50:07.166Z,3.15
2023-03-22T04:52:36.518Z,2.80
2023-03-22T04:55:02.990Z,2.81
2023-03-22T04:57:29.555Z,2.91
2023-03-22T04:59:55.956Z,2.83
2023-03-22T05:02:22.523Z,2.77
2023-03-22T05:04:48.997Z,2.73
2023-03-22T05:07:15.391Z,2.70
2023-03-22T05:09:52.209Z,2.65
2023-03-22T05:12:19.810Z,2.91
2023-03-22T05:14:46.292Z,2.69
2023-03-22T05:17:23.105Z,2.75
2023-03-22T05:19:52.603Z,2.94
2023-03-22T05:22:22.352Z,2.82
2023-03-22T05:24:48.761Z,2.80
2023-03-22T05:27:15.184Z,2.60
2023-03-22T05:29:44.869Z,2.73
2023-03-22T05:32:11.928Z,2.62
2023-03-22T05:34:38.802Z,2.56
2023-03-22T05:37:05.186Z,2.50
2023-03-22T05:39:31.953Z,2.56
2023-03-22T05:41:58.341Z,2.63
2023-03-22T05:44:31.867Z,2.50
2023-03-22T05:46:58.982Z,2.52
2023-03-22T05:49:32.683Z,2.63
2023-03-22T05:51:59.118Z,2.67
2023-03-22T05:54:25.583Z,2.71
2023-03-22T05:56:53.131Z,2.55
2023-03-22T05:59:21.521Z,2.68
2023-03-22T06:01:47.980Z,2.77
2023-03-22T06:04:15.452Z,2.66
2023-03-22T06:06:42.000Z,2.67
2023-03-22T06:09:16.731Z,2.72
2023-03-22T06:11:43.924Z,2.90
2023-03-22T06:14:15.830Z,2.80
2023-03-22T06:16:42.895Z,3.00
2023-03-22T06:19:09.302Z,3.09
2023-03-22T06:21:35.678Z,3.13
2023-03-22T06:24:02.080Z,3.23
2023-03-22T06:26:28.449Z,3.39
2023-03-22T06:29:10.275Z,3.48
2023-03-22T06:31:36.720Z,3.75
2023-03-22T06:34:03.816Z,3.63
2023-03-22T06:36:30.826Z,3.72
2023-03-22T06:39:06.582Z,3.99
2023-03-22T06:41:33.070Z,4.07
2023-03-22T06:43:59.632Z,4.28
2023-03-22T06:46:26.260Z,4.42
2023-03-22T06:48:52.749Z,4.53
2023-03-22T06:51:19.140Z,4.50
2023-03-22T06:53:46.343Z,4.81
2023-03-22T06:56:12.752Z,5.02
2023-03-22T06:58:39.168Z,5.01
2023-03-22T07:01:05.584Z,5.10
2023-03-22T07:03:32.041Z,5.06
2023-03-22T07:06:07.538Z,5.39
2023-03-22T07:08:37.085Z,5.36
2023-03-22T07:11:04.822Z,5.53
2023-03-22T07:13:31.265Z,5.38
2023-03-22T07:16:00.061Z,5.54
2023-03-22T07:18:27.194Z,5.73
2023-03-22T07:20:53.690Z,5.76
2023-03-22T07:23:20.415Z,5.97
2023-03-22T07:25:47.718Z,6.10
2023-03-22T07:28:15.277Z,6.26
2023-03-22T07:30:42.082Z,6.41
2023-03-22T07:33:11.029Z,6.37
2023-03-22T07:35:38.069Z,6.57
2023-03-22T07:38:06.460Z,6.81
2023-03-22T07:40:32.911Z,6.95
2023-03-22T07:42:59.371Z,7.09
2023-03-22T07:45:26.167Z,7.20
2023-03-22T07:47:52.657Z,7.13
2023-03-22T07:50:19.530Z,7.38
2023-03-22T07:52:46.282Z,7.70
2023-03-22T07:55:14.372Z,7.77
2023-03-22T07:57:41.095Z,7.73
2023-03-22T08:00:12.085Z,7.96
2023-03-22T08:02:38.852Z,8.21
2023-03-22T08:05:07.182Z,8.45
2023-03-22T08:07:33.582Z,8.54
2023-03-22T08:10:00.398Z,8.65
2023-03-22T08:12:28.061Z,8.55
2023-03-22T08:14:54.477Z,8.84
2023-03-22T08:17:20.978Z,8.88
2023-03-22T08:19:47.376Z,8.89
2023-03-22T08:22:13.816Z,9.06
2023-03-22T08:24:40.256Z,9.36
2023-03-22T08:27:06.753Z,9.38
2023-03-22T08:29:33.868Z,9.49
2023-03-22T08:32:02.303Z,9.46
2023-03-22T08:34:29.790Z,9.54
2023-03-22T08:36:56.318Z,9.82
2023-03-22T08:39:24.706Z,10.06
2023-03-22T08:41:54.321Z,9.93
2023-03-22T08:44:20.764Z,10.13
2023-03-22T08:46:47.129Z,10.00
2023-03-22T08:49:14.901Z,10.16
2023-03-22T08:51:41.293Z,10.40
2023-03-22T08:54:07.783Z,10.45
2023-03-22T08:56:38.200Z,10.61
2023-03-22T08:59:06.521Z,10.75
2023-03-22T09:01:33.061Z,10.83
2023-03-22T09:03:59.649Z,10.86
2023-03-22T09:06:26.430Z,10.89
2023-03-22T09:08:53.464Z,11.09
2023-03-22T09:11:20.889Z,11.25
2023-03-22T09:13:48.588Z,11.42
2023-03-22T09:16:15.144Z,11.38
2023-03-22T09:18:41.562Z,11.31
2023-03-22T09:21:09.445Z,11.69
2023-03-22T09:23:37.755Z,11.85
2023-03-22T09:26:07.328Z,11.95
2023-03-22T09:28:35.888Z,12.03
2023-03-22T09:31:05.597Z,12.13
2023-03-22T09:33:32.720Z,12.04
2023-03-22T09:35:59.629Z,12.54
2023-03-22T09:38:27.448Z,12.82
2023-03-22T09:41:00.783Z,12.44
2023-03-22T09:43:33.024Z,13.05
2023-03-22T09:46:00.287Z,12.84
2023-03-22T09:48:39.144Z,13.19
2023-03-22T09:51:12.806Z,13.38
2023-03-22T09:53:39.203Z,13.45
2023-03-22T09:56:23.789Z,13.53
2023-03-22T09:59:33.297Z,13.95
2023-03-22T10:02:13.129Z,14.04
2023-03-22T10:04:54.448Z,14.21
2023-03-22T10:07:31.376Z,14.24
2023-03-22T10:10:00.784Z,14.55
2023-03-22T10:12:32.280Z,14.87
2023-03-22T10:15:13.726Z,14.94
2023-03-22T10:17:45.453Z,15.09
2023-03-22T10:20:21.937Z,15.46
2023-03-22T10:22:48.743Z,15.50
2023-03-22T10:25:22.771Z,15.54
2023-03-22T10:27:50.853Z,15.74
2023-03-22T10:30:25.932Z,15.95
2023-03-22T10:33:00.971Z,16.03
2023-03-22T10:35:28.222Z,15.71
2023-03-22T10:37:57.799Z,15.54
2023-03-22T10:40:33.724Z,15.71
2023-03-22T10:43:10.073Z,15.36
2023-03-22T10:45:36.925Z,15.65
2023-03-22T10:48:15.851Z,15.79
2023-03-22T10:50:45.856Z,15.75
2023-03-22T10:53:38.404Z,15.61
2023-03-22T10:56:06.166Z,15.54
2023-03-22T10:58:34.456Z,15.75
2023-03-22T11:01:17.042Z,15.52
2023-03-22T11:03:51.836Z,15.52
2023-03-22T11:06:23.055Z,15.64
2023-03-22T11:09:14.139Z,15.72
2023-03-22T11:11:51.456Z,15.79
2023-03-22T11:14:31.753Z,15.82
2023-03-22T11:17:08.667Z,15.36
2023-03-22T11:19:49.901Z,15.59
2023-03-22T11:22:25.736Z,15.54
2023-03-22T11:24:55.071Z,15.82
2023-03-22T11:27:32.965Z,15.93
2023-03-22T11:30:21.022Z,15.77
2023-03-22T11:33:12.042Z,15.47
2023-03-22T11:35:39.218Z,15.64
2023-03-22T11:38:07.562Z,15.71
2023-03-22T11:40:36.566Z,15.71
2023-03-22T11:43:31.561Z,15.79
2023-03-22T11:46:08.804Z,15.64
2023-03-22T11:48:36.629Z,15.92
2023-03-22T11:51:19.388Z,16.24
2023-03-22T11:53:48.516Z,15.96
2023-03-22T11:56:25.854Z,15.84
2023-03-22T11:59:04.141Z,15.98
2023-03-22T12:01:35.530Z,16.10
2023-03-22T12:04:05.753Z,16.48
2023-03-22T12:06:36.925Z,16.43
2023-03-22T12:09:26.967Z,16.46
2023-03-22T12:11:59.005Z,16.30
2023-03-22T12:14:29.634Z,16.32
2023-03-22T12:17:28.288Z,16.33
2023-03-22T12:20:16.044Z,16.43
2023-03-22T12:22:51.159Z,16.83
2023-03-22T12:25:21.955Z,16.69
2023-03-22T12:27:53.029Z,16.98
2023-03-22T12:30:31.695Z,16.82
2023-03-22T12:33:07.096Z,16.69
2023-03-22T12:35:36.294Z,16.48
2023-03-22T12:38:16.331Z,16.55
2023-03-22T12:40:44.238Z,16.56
2023-03-22T12:43:21.811Z,16.41
2023-03-22T12:45:58.419Z,15.88
2023-03-22T12:48:46.664Z,16.33
2023-03-22T12:51:14.551Z,16.43
2023-03-22T12:53:46.893Z,16.65
2023-03-22T12:56:17.870Z,16.41
2023-03-22T12:58:51.803Z,16.30
2023-03-22T13:01:30.370Z,16.87
2023-03-22T13:03:57.898Z,16.58
2023-03-22T13:06:44.069Z,16.52
2023-03-22T13:09:16.155Z,16.31
2023-03-22T13:11:45.830Z,16.57
2023-03-22T13:14:33.912Z,16.88
2023-03-22T13:17:01.072Z,16.31
2023-03-22T13:19:34.884Z,16.24
2023-03-22T13:22:19.779Z,16.19
2023-03-22T13:25:23.661Z,16.38
2023-03-22T13:27:57.343Z,16.64
2023-03-22T13:30:33.014Z,16.89
2023-03-22T13:33:12.638Z,17.02
2023-03-22T13:35:46.046Z,16.96
2023-03-22T13:38:25.436Z,17.24
2023-03-22T13:40:59.759Z,17.07
2023-03-22T13:43:50.217Z,17.38
2023-03-22T13:46:22.760Z,16.98
2023-03-22T13:48:55.185Z,17.02
2023-03-22T13:51:21.898Z,17.37
2023-03-22T13:54:04.826Z,16.96
2023-03-22T13:56:58.500Z,17.04
2023-03-22T14:00:06.840Z,16.84
2023-03-22T14:02:41.711Z,16.84
2023-03-22T14:05:17.852Z,16.84
2023-03-22T14:07:47.826Z,16.60
2023-03-22T14:10:20.062Z,16.26
2023-03-22T14:13:11.542Z,16.73
2023-03-22T14:15:44.982Z,17.02
2023-03-22T14:18:21.313Z,17.49
2023-03-22T14:21:06.937Z,17.22
